Time;durP1;ratioP1;P1;durP2;ratioP2;P2;SDS_P1;SDS_P2;PMS_P1;PMS_P2;Temp;Humidity;BMP_temperature;BMP_pressure;BME280_temperature;BME280_humidity;BME280_pressure;Samples;Min_cycle;Max_cycle;Signal;HPM_P1;HPM_P2
2022/09/18 00:01:30;;;;;;;2.50;0.60;;;;;;;;;;5005942;28;20038;-45
2022/09/18 00:03:59;;;;;;;0.65;0.57;;;;;;;;;;5005899;28;20064;-45
2022/09/18 00:06:28;;;;;;;1.45;0.60;;;;;;;;;;5005161;28;20045;-44
2022/09/18 00:08:56;;;;;;;0.95;0.70;;;;;;;;;;5004385;28;20030;-45
2022/09/18 00:11:25;;;;;;;0.63;0.47;;;;;;;;;;5015308;28;20033;-45
2022/09/18 00:13:50;;;;;;;0.52;0.52;;;;;;;;;;5025546;28;20435;-45
2022/09/18 00:16:18;;;;;;;1.52;0.40;;;;;;;;;;5016759;28;20030;-45
2022/09/18 00:18:44;;;;;;;1.92;0.52;;;;;;;;;;5006458;28;20029;-44
2022/09/18 00:21:16;;;;;;;1.60;0.75;;;;;;;;;;5002931;28;20725;-45
2022/09/18 00:23:43;;;;;;;2.30;0.63;;;;;;;;;;5006290;28;20163;-44
2022/09/18 00:26:10;;;;;;;1.70;1.02;;;;;;;;;;5011404;28;20556;-44
2022/09/18 00:28:36;;;;;;;1.67;0.63;;;;;;;;;;5025444;28;20037;-44
2022/09/18 00:31:07;;;;;;;1.42;0.60;;;;;;;;;;5018839;28;20529;-45
2022/09/18 00:33:33;;;;;;;0.57;0.50;;;;;;;;;;5004215;28;20036;-45
2022/09/18 00:36:01;;;;;;;2.85;0.60;;;;;;;;;;5007589;28;20120;-46
2022/09/18 00:38:30;;;;;;;3.88;0.77;;;;;;;;;;5004891;28;20033;-45
2022/09/18 00:40:57;;;;;;;6.32;0.60;;;;;;;;;;5011611;28;20521;-45
2022/09/18 00:43:25;;;;;;;1.13;0.82;;;;;;;;;;5024456;28;20051;-46
2022/09/18 00:46:05;;;;;;;1.00;0.50;;;;;;;;;;5014446;28;20065;-44
2022/09/18 00:48:48;;;;;;;1.95;0.68;;;;;;;;;;5007488;28;20095;-44
2022/09/18 00:51:15;;;;;;;1.67;0.60;;;;;;;;;;5004664;28;20045;-44
2022/09/18 00:53:51;;;;;;;1.17;0.52;;;;;;;;;;5006169;28;20030;-45
2022/09/18 00:56:17;;;;;;;1.83;0.82;;;;;;;;;;5011116;28;20034;-45
2022/09/18 00:58:43;;;;;;;1.42;0.80;;;;;;;;;;5025067;28;20045;-44
2022/09/18 01:01:09;;;;;;;2.72;0.88;;;;;;;;;;5011174;28;20125;-45
2022/09/18 01:03:35;;;;;;;1.88;0.90;;;;;;;;;;5007304;28;20120;-46
2022/09/18 01:06:07;;;;;;;2.17;0.90;;;;;;;;;;5010601;28;20391;-47
2022/09/18 01:09:00;;;;;;;0.93;0.60;;;;;;;;;;5021725;28;20034;-45
2022/09/18 01:11:34;;;;;;;2.63;0.60;;;;;;;;;;5013590;28;20045;-46
2022/09/18 01:14:03;;;;;;;0.90;0.50;;;;;;;;;;5005018;28;20062;-46
2022/09/18 01:16:38;;;;;;;2.47;0.90;;;;;;;;;;5006270;28;20034;-45
2022/09/18 01:19:27;;;;;;;2.78;0.85;;;;;;;;;;5003517;28;20033;-44
2022/09/18 01:22:08;;;;;;;2.10;0.88;;;;;;;;;;5002661;28;20129;-44
2022/09/18 01:24:34;;;;;;;0.52;0.52;;;;;;;;;;5002680;28;20040;-48
2022/09/18 01:27:03;;;;;;;1.40;0.60;;;;;;;;;;5019439;28;20037;-47
2022/09/18 01:29:53;;;;;;;2.58;0.88;;;;;;;;;;5021730;28;20043;-45
2022/09/18 01:32:28;;;;;;;1.65;0.60;;;;;;;;;;5005896;28;21758;-46
2022/09/18 01:35:15;;;;;;;1.58;0.70;;;;;;;;;;5001047;28;20399;-45
2022/09/18 01:37:49;;;;;;;0.98;0.63;;;;;;;;;;5003617;28;20038;-45
2022/09/18 01:40:24;;;;;;;4.38;0.55;;;;;;;;;;5004897;28;20029;-43
2022/09/18 01:42:52;;;;;;;0.82;0.73;;;;;;;;;;5006153;28;20128;-47
2022/09/18 01:45:25;;;;;;;0.47;0.47;;;;;;;;;;5002521;28;20486;-44
2022/09/18 01:47:56;;;;;;;1.05;0.68;;;;;;;;;;5005108;28;20029;-44
2022/09/18 01:50:26;;;;;;;2.05;0.80;;;;;;;;;;5007672;28;20038;-44
2022/09/18 01:53:20;;;;;;;1.40;0.80;;;;;;;;;;5023993;28;20030;-44
2022/09/18 01:55:53;;;;;;;0.55;0.55;;;;;;;;;;5020856;28;20038;-45
2022/09/18 01:58:22;;;;;;;1.80;0.85;;;;;;;;;;5023989;28;20537;-44
2022/09/18 02:00:53;;;;;;;1.58;0.77;;;;;;;;;;5024222;28;20077;-45
2022/09/18 02:03:30;;;;;;;1.30;0.50;;;;;;;;;;5017021;28;20044;-49
2022/09/18 02:05:59;;;;;;;1.60;0.60;;;;;;;;;;5017320;28;20069;-45
2022/09/18 02:08:34;;;;;;;0.82;0.52;;;;;;;;;;5003168;28;20045;-45
2022/09/18 02:11:07;;;;;;;1.58;0.90;;;;;;;;;;5004169;28;20072;-44
2022/09/18 02:13:57;;;;;;;1.95;0.70;;;;;;;;;;5006140;28;20089;-47
2022/09/18 02:16:33;;;;;;;0.68;0.60;;;;;;;;;;5010605;28;20033;-44
2022/09/18 02:19:08;;;;;;;1.00;0.80;;;;;;;;;;5017019;28;20029;-47
2022/09/18 02:21:36;;;;;;;2.33;0.70;;;;;;;;;;5008094;28;22697;-44
2022/09/18 02:24:06;;;;;;;0.65;0.65;;;;;;;;;;5004707;28;20065;-44
2022/09/18 02:26:34;;;;;;;0.52;0.50;;;;;;;;;;5013124;28;20131;-47
2022/09/18 02:29:01;;;;;;;1.70;0.60;;;;;;;;;;5025171;28;20064;-45
2022/09/18 02:31:27;;;;;;;2.70;0.80;;;;;;;;;;5011480;28;20132;-44
2022/09/18 02:33:53;;;;;;;0.88;0.50;;;;;;;;;;5005115;28;20038;-48
2022/09/18 02:36:39;;;;;;;2.83;0.75;;;;;;;;;;5002845;28;20076;-46
2022/09/18 02:39:23;;;;;;;0.60;0.60;;;;;;;;;;5001442;28;20511;-46
2022/09/18 02:41:55;;;;;;;1.00;0.55;;;;;;;;;;5015765;28;20048;-44
2022/09/18 02:44:36;;;;;;;1.02;0.93;;;;;;;;;;5023699;28;20505;-45
2022/09/18 02:47:29;;;;;;;3.13;0.82;;;;;;;;;;5025113;28;20046;-44
2022/09/18 02:50:11;;;;;;;0.50;0.50;;;;;;;;;;5020399;28;20495;-45
2022/09/18 02:52:51;;;;;;;1.90;0.85;;;;;;;;;;5020090;28;20053;-45
2022/09/18 02:55:25;;;;;;;2.88;0.60;;;;;;;;;;5023922;28;20524;-47
2022/09/18 02:58:04;;;;;;;1.35;0.55;;;;;;;;;;5025388;28;20119;-44
2022/09/18 03:00:31;;;;;;;0.77;0.77;;;;;;;;;;5022570;28;20044;-44
2022/09/18 03:03:00;;;;;;;0.75;0.68;;;;;;;;;;5009079;28;20037;-45
2022/09/18 03:05:25;;;;;;;1.40;0.60;;;;;;;;;;5007128;28;20467;-45
2022/09/18 03:07:52;;;;;;;1.65;0.65;;;;;;;;;;5026130;28;20041;-44
2022/09/18 03:10:17;;;;;;;2.42;0.82;;;;;;;;;;5026610;28;20029;-43
2022/09/18 03:12:43;;;;;;;1.75;1.17;;;;;;;;;;5008323;28;20104;-46
2022/09/18 03:15:10;;;;;;;0.55;0.52;;;;;;;;;;5005399;28;20468;-44
2022/09/18 03:17:35;;;;;;;0.90;0.55;;;;;;;;;;5010323;28;20061;-43
2022/09/18 03:20:03;;;;;;;4.50;1.38;;;;;;;;;;5009137;28;20061;-44
2022/09/18 03:22:29;;;;;;;1.83;0.73;;;;;;;;;;5006894;28;20076;-46
2022/09/18 03:24:54;;;;;;;1.23;0.68;;;;;;;;;;5008662;28;20057;-45
2022/09/18 03:27:20;;;;;;;2.17;1.25;;;;;;;;;;5022849;28;20508;-45
2022/09/18 03:29:46;;;;;;;1.30;0.77;;;;;;;;;;5025802;28;20037;-45
2022/09/18 03:32:11;;;;;;;3.83;0.80;;;;;;;;;;5025627;28;20045;-46
2022/09/18 03:34:38;;;;;;;2.90;0.90;;;;;;;;;;5028163;28;20041;-44
2022/09/18 03:37:03;;;;;;;0.70;0.55;;;;;;;;;;5027285;28;20040;-46
2022/09/18 03:39:29;;;;;;;0.80;0.60;;;;;;;;;;5024741;28;20026;-45
2022/09/18 03:41:54;;;;;;;2.22;0.80;;;;;;;;;;5009369;28;20046;-44
2022/09/18 03:44:20;;;;;;;0.75;0.65;;;;;;;;;;5005977;28;20374;-44
2022/09/18 03:46:46;;;;;;;2.15;0.80;;;;;;;;;;5014781;28;20049;-44
2022/09/18 03:49:11;;;;;;;2.47;0.93;;;;;;;;;;5013848;28;20041;-44
2022/09/18 03:51:37;;;;;;;1.95;0.77;;;;;;;;;;5009631;28;20121;-45
2022/09/18 03:54:03;;;;;;;1.67;0.77;;;;;;;;;;5007189;28;20037;-46
2022/09/18 03:56:29;;;;;;;4.22;1.02;;;;;;;;;;5017063;28;20065;-44
2022/09/18 03:58:54;;;;;;;1.20;0.50;;;;;;;;;;5028233;28;20183;-44
2022/09/18 04:01:20;;;;;;;1.27;0.82;;;;;;;;;;5018545;28;20049;-49
2022/09/18 04:03:45;;;;;;;1.17;0.70;;;;;;;;;;5005846;28;20033;-46
2022/09/18 04:06:11;;;;;;;3.85;1.45;;;;;;;;;;5010850;28;20099;-44
2022/09/18 04:08:37;;;;;;;1.75;0.70;;;;;;;;;;5021106;28;20506;-45
2022/09/18 04:11:04;;;;;;;1.27;0.50;;;;;;;;;;5011655;28;20042;-44
2022/09/18 04:13:33;;;;;;;4.22;0.75;;;;;;;;;;5007378;28;20026;-45
2022/09/18 04:15:59;;;;;;;4.15;1.25;;;;;;;;;;5011882;28;20049;-44
2022/09/18 04:18:25;;;;;;;2.35;0.70;;;;;;;;;;5025636;28;20033;-44
2022/09/18 04:20:50;;;;;;;1.02;0.90;;;;;;;;;;5019915;28;20048;-44
2022/09/18 04:23:16;;;;;;;1.42;0.65;;;;;;;;;;5006926;28;20037;-47
2022/09/18 04:25:42;;;;;;;1.98;0.70;;;;;;;;;;5006688;28;20048;-45
2022/09/18 04:28:11;;;;;;;1.70;0.90;;;;;;;;;;5006785;28;20033;-46
2022/09/18 04:30:37;;;;;;;1.33;0.60;;;;;;;;;;5004321;28;20399;-47
2022/09/18 04:33:03;;;;;;;2.97;0.80;;;;;;;;;;5007179;28;20034;-44
2022/09/18 04:35:29;;;;;;;4.07;0.70;;;;;;;;;;5007539;28;20041;-44
2022/09/18 04:37:54;;;;;;;5.97;1.00;;;;;;;;;;5023598;28;20048;-45
2022/09/18 04:40:20;;;;;;;1.30;0.85;;;;;;;;;;5022795;28;21680;-44
2022/09/18 04:42:46;;;;;;;1.65;0.73;;;;;;;;;;5003382;28;20026;-46
2022/09/18 04:45:12;;;;;;;1.02;0.70;;;;;;;;;;5005281;28;20087;-42
2022/09/18 04:47:37;;;;;;;1.92;0.90;;;;;;;;;;5024808;28;20105;-44
2022/09/18 04:50:07;;;;;;;1.45;1.02;;;;;;;;;;5023961;28;20421;-46
2022/09/18 04:52:34;;;;;;;3.92;0.90;;;;;;;;;;5027792;28;20135;-45
2022/09/18 04:54:59;;;;;;;1.75;0.82;;;;;;;;;;5022862;28;20030;-45
2022/09/18 04:57:25;;;;;;;1.95;0.82;;;;;;;;;;5005907;28;20555;-45
2022/09/18 04:59:51;;;;;;;1.65;0.80;;;;;;;;;;5005668;28;21439;-46
2022/09/18 05:02:17;;;;;;;2.53;1.08;;;;;;;;;;5006193;28;20042;-46
2022/09/18 05:04:43;;;;;;;1.50;0.60;;;;;;;;;;5007515;28;20053;-45
2022/09/18 05:07:09;;;;;;;3.30;0.85;;;;;;;;;;5013792;28;20090;-45
2022/09/18 05:09:35;;;;;;;1.17;0.80;;;;;;;;;;5018260;28;20117;-45
2022/09/18 05:12:01;;;;;;;0.68;0.68;;;;;;;;;;5015141;28;20038;-46
2022/09/18 05:14:26;;;;;;;1.70;0.80;;;;;;;;;;5014781;28;20494;-45
2022/09/18 05:16:52;;;;;;;3.78;0.80;;;;;;;;;;5009231;28;20069;-45
2022/09/18 05:19:18;;;;;;;1.45;0.73;;;;;;;;;;5005034;28;20034;-44
2022/09/18 05:21:44;;;;;;;1.30;0.63;;;;;;;;;;5017618;28;20042;-48
2022/09/18 05:24:09;;;;;;;0.93;0.90;;;;;;;;;;5025236;28;20040;-45
2022/09/18 05:26:35;;;;;;;1.95;0.95;;;;;;;;;;5025706;28;20405;-48
2022/09/18 05:29:01;;;;;;;0.85;0.82;;;;;;;;;;5024564;28;20673;-47
2022/09/18 05:31:26;;;;;;;1.65;1.25;;;;;;;;;;5023944;28;20041;-45
2022/09/18 05:33:52;;;;;;;4.00;1.02;;;;;;;;;;5026360;28;20022;-45
2022/09/18 05:36:17;;;;;;;1.30;0.80;;;;;;;;;;5013266;28;20537;-44
2022/09/18 05:38:44;;;;;;;2.13;0.93;;;;;;;;;;5004901;28;20383;-45
2022/09/18 05:41:10;;;;;;;2.13;0.70;;;;;;;;;;5005022;28;20041;-44
2022/09/18 05:43:35;;;;;;;2.45;1.10;;;;;;;;;;5006464;28;20022;-44
2022/09/18 05:46:01;;;;;;;1.27;0.90;;;;;;;;;;5001338;28;20103;-44
2022/09/18 05:48:27;;;;;;;0.98;0.90;;;;;;;;;;5005592;28;20034;-47
2022/09/18 05:50:53;;;;;;;1.40;0.80;;;;;;;;;;5005747;28;20045;-48
2022/09/18 05:53:20;;;;;;;1.15;0.80;;;;;;;;;;5003732;28;20573;-45
2022/09/18 05:55:45;;;;;;;0.70;0.70;;;;;;;;;;5010106;28;20041;-45
2022/09/18 05:58:14;;;;;;;0.88;0.60;;;;;;;;;;5023276;28;20407;-46
2022/09/18 06:00:39;;;;;;;1.58;0.77;;;;;;;;;;5018564;28;20045;-44
2022/09/18 06:03:08;;;;;;;0.70;0.70;;;;;;;;;;5005820;28;20037;-47
2022/09/18 06:05:36;;;;;;;1.58;0.60;;;;;;;;;;5003615;28;20041;-46
2022/09/18 06:08:07;;;;;;;0.98;0.60;;;;;;;;;;5006369;28;20026;-46
2022/09/18 06:10:38;;;;;;;1.05;0.65;;;;;;;;;;5002357;28;20045;-47
2022/09/18 06:13:12;;;;;;;1.88;1.00;;;;;;;;;;5009575;28;20021;-47
2022/09/18 06:15:38;;;;;;;1.30;0.70;;;;;;;;;;5008161;28;20078;-45
2022/09/18 06:18:07;;;;;;;2.17;0.65;;;;;;;;;;5005486;28;20033;-50
2022/09/18 06:20:33;;;;;;;0.80;0.70;;;;;;;;;;5004600;28;20056;-46
2022/09/18 06:23:00;;;;;;;1.25;0.65;;;;;;;;;;5025604;28;20034;-44
2022/09/18 06:25:29;;;;;;;5.78;0.73;;;;;;;;;;5023846;28;20116;-44
2022/09/18 06:27:59;;;;;;;0.50;0.50;;;;;;;;;;5006369;28;20513;-45
2022/09/18 06:30:34;;;;;;;1.85;0.70;;;;;;;;;;5006982;28;20042;-45
2022/09/18 06:33:02;;;;;;;2.38;0.65;;;;;;;;;;5003803;28;20099;-45
2022/09/18 06:35:27;;;;;;;2.38;0.70;;;;;;;;;;5005521;28;20423;-44
2022/09/18 06:37:53;;;;;;;2.42;0.65;;;;;;;;;;5027695;28;20140;-47
2022/09/18 06:40:19;;;;;;;2.00;0.80;;;;;;;;;;5028473;28;20022;-44
2022/09/18 06:42:44;;;;;;;0.70;0.65;;;;;;;;;;5029334;28;20433;-44
2022/09/18 06:45:10;;;;;;;2.90;1.23;;;;;;;;;;5024998;28;20061;-45
2022/09/18 06:47:36;;;;;;;4.68;0.70;;;;;;;;;;5027718;28;20482;-45
2022/09/18 06:50:02;;;;;;;5.65;0.73;;;;;;;;;;5027363;28;20029;-47
2022/09/18 06:52:27;;;;;;;2.38;0.73;;;;;;;;;;5006636;28;20029;-47
2022/09/18 06:54:53;;;;;;;1.40;0.63;;;;;;;;;;5007577;28;20032;-45
2022/09/18 06:57:18;;;;;;;1.88;1.00;;;;;;;;;;5015120;28;20050;-46
2022/09/18 06:59:44;;;;;;;2.30;1.00;;;;;;;;;;5021998;28;20095;-44
2022/09/18 07:02:15;;;;;;;0.80;0.55;;;;;;;;;;5018655;28;20030;-45
2022/09/18 07:04:40;;;;;;;2.35;0.75;;;;;;;;;;5016370;28;20022;-45
2022/09/18 07:07:07;;;;;;;1.05;0.75;;;;;;;;;;5019218;28;20044;-45
2022/09/18 07:09:32;;;;;;;0.70;0.70;;;;;;;;;;5017435;28;20109;-48
2022/09/18 07:11:58;;;;;;;1.67;1.02;;;;;;;;;;5018117;28;20121;-45
2022/09/18 07:14:24;;;;;;;4.50;0.60;;;;;;;;;;5011503;28;20018;-45
2022/09/18 07:16:49;;;;;;;0.63;0.63;;;;;;;;;;5006452;28;20065;-46
2022/09/18 07:19:15;;;;;;;1.23;0.60;;;;;;;;;;5000284;28;20449;-46
2022/09/18 07:21:40;;;;;;;2.90;0.90;;;;;;;;;;5013652;28;20426;-45
2022/09/18 07:24:06;;;;;;;1.27;0.63;;;;;;;;;;5020572;28;20039;-49
2022/09/18 07:26:32;;;;;;;1.10;0.70;;;;;;;;;;5014908;28;20065;-45
2022/09/18 07:28:57;;;;;;;1.35;0.90;;;;;;;;;;5000518;28;20101;-45
2022/09/18 07:31:23;;;;;;;0.90;0.65;;;;;;;;;;4998788;28;20546;-45
2022/09/18 07:33:51;;;;;;;2.22;0.80;;;;;;;;;;5001989;28;20084;-47
2022/09/18 07:36:17;;;;;;;1.33;0.60;;;;;;;;;;5009762;28;20132;-48
2022/09/18 07:38:42;;;;;;;1.48;0.70;;;;;;;;;;5019041;28;20128;-44
2022/09/18 07:41:08;;;;;;;2.47;0.80;;;;;;;;;;5024753;28;20044;-48
2022/09/18 07:43:34;;;;;;;1.55;0.90;;;;;;;;;;5026476;28;20033;-45
2022/09/18 07:46:00;;;;;;;1.85;0.80;;;;;;;;;;5017003;28;20046;-46
2022/09/18 07:48:26;;;;;;;0.95;0.70;;;;;;;;;;5019624;28;20036;-47
2022/09/18 07:50:57;;;;;;;1.30;0.50;;;;;;;;;;5018411;28;20049;-49
2022/09/18 07:53:23;;;;;;;1.08;0.75;;;;;;;;;;5017345;28;20034;-45
2022/09/18 07:55:48;;;;;;;3.95;1.08;;;;;;;;;;5020850;28;20044;-46
2022/09/18 07:58:14;;;;;;;2.38;0.70;;;;;;;;;;5015150;28;20041;-46
2022/09/18 08:00:40;;;;;;;3.90;0.80;;;;;;;;;;5018999;28;20050;-45
2022/09/18 08:03:08;;;;;;;1.70;0.88;;;;;;;;;;4999645;28;20571;-46
2022/09/18 08:05:36;;;;;;;0.80;0.60;;;;;;;;;;5000090;28;20120;-46
2022/09/18 08:08:11;;;;;;;2.45;0.85;;;;;;;;;;5019061;28;20061;-45
2022/09/18 08:10:38;;;;;;;2.15;0.85;;;;;;;;;;5017171;28;20046;-45
2022/09/18 08:13:04;;;;;;;3.33;0.80;;;;;;;;;;4995969;28;20802;-45
2022/09/18 08:15:31;;;;;;;2.22;0.90;;;;;;;;;;4999676;28;20125;-46
2022/09/18 08:17:57;;;;;;;0.98;0.63;;;;;;;;;;4996997;28;20034;-46
2022/09/18 08:20:23;;;;;;;2.45;0.70;;;;;;;;;;4998233;28;20029;-45
2022/09/18 08:22:49;;;;;;;1.02;0.80;;;;;;;;;;5020416;28;20037;-47
2022/09/18 08:25:16;;;;;;;3.17;0.95;;;;;;;;;;5016090;28;20068;-49
2022/09/18 08:27:42;;;;;;;1.33;0.73;;;;;;;;;;5000191;28;20026;-45
2022/09/18 08:30:09;;;;;;;0.80;0.73;;;;;;;;;;4998978;28;20975;-45
2022/09/18 08:32:35;;;;;;;1.88;0.90;;;;;;;;;;4995876;28;20044;-47
2022/09/18 08:35:02;;;;;;;1.48;0.60;;;;;;;;;;5002324;28;20030;-45
2022/09/18 08:37:29;;;;;;;0.85;0.85;;;;;;;;;;5016546;28;20041;-45
2022/09/18 08:39:54;;;;;;;1.05;0.75;;;;;;;;;;5016527;28;20037;-49
2022/09/18 08:42:26;;;;;;;0.60;0.60;;;;;;;;;;5017309;28;20049;-46
2022/09/18 08:44:57;;;;;;;0.80;0.70;;;;;;;;;;5019443;28;20096;-48
2022/09/18 08:47:30;;;;;;;1.13;0.70;;;;;;;;;;5016602;28;20403;-47
2022/09/18 08:50:04;;;;;;;2.78;0.77;;;;;;;;;;5017049;28;20040;-46
2022/09/18 08:52:33;;;;;;;3.67;0.98;;;;;;;;;;5016869;28;20398;-47
2022/09/18 08:55:09;;;;;;;3.47;1.00;;;;;;;;;;5018114;28;20086;-48
2022/09/18 08:57:36;;;;;;;2.90;0.60;;;;;;;;;;5020286;28;20061;-45
2022/09/18 09:00:23;;;;;;;0.95;0.88;;;;;;;;;;5018199;28;20036;-46
2022/09/18 09:03:14;;;;;;;1.77;0.80;;;;;;;;;;5016837;28;20041;-45
2022/09/18 09:05:47;;;;;;;7.50;0.98;;;;;;;;;;5006881;28;20132;-46
2022/09/18 09:08:28;;;;;;;1.80;1.27;;;;;;;;;;5016069;28;20603;-45
2022/09/18 09:11:22;;;;;;;1.20;0.70;;;;;;;;;;5020921;28;20168;-45
2022/09/18 09:14:14;;;;;;;2.30;0.80;;;;;;;;;;5019238;28;20108;-46
2022/09/18 09:16:43;;;;;;;0.90;0.75;;;;;;;;;;5002671;28;20056;-48
2022/09/18 09:19:21;;;;;;;1.58;0.60;;;;;;;;;;4998516;28;20849;-46
2022/09/18 09:22:06;;;;;;;0.80;0.80;;;;;;;;;;4998850;28;20057;-46
2022/09/18 09:24:40;;;;;;;2.13;0.70;;;;;;;;;;4995718;28;20022;-47
2022/09/18 09:27:21;;;;;;;3.20;1.20;;;;;;;;;;5003088;28;20081;-46
2022/09/18 09:29:47;;;;;;;6.53;1.00;;;;;;;;;;5002115;28;20487;-47
2022/09/18 09:32:19;;;;;;;1.58;0.55;;;;;;;;;;5003196;28;20050;-48
2022/09/18 09:34:55;;;;;;;1.08;0.88;;;;;;;;;;4997761;28;20132;-48
2022/09/18 09:37:27;;;;;;;2.00;0.90;;;;;;;;;;4999382;28;21006;-46
2022/09/18 09:39:58;;;;;;;3.42;0.90;;;;;;;;;;5001870;28;20034;-47
2022/09/18 09:42:33;;;;;;;1.65;0.80;;;;;;;;;;5020006;28;20682;-47
2022/09/18 09:45:23;;;;;;;5.70;0.93;;;;;;;;;;5021573;28;20116;-49
2022/09/18 09:48:14;;;;;;;4.82;0.90;;;;;;;;;;5000781;28;20046;-46
2022/09/18 09:51:06;;;;;;;6.70;1.00;;;;;;;;;;5003633;28;20050;-47
2022/09/18 09:53:31;;;;;;;;;;;;;;;;;;5022889;28;20171;-49
2022/09/18 09:56:27;;;;;;;2.13;0.90;;;;;;;;;;5013433;28;20020;-47
2022/09/18 09:59:34;;;;;;;1.48;0.75;;;;;;;;;;4999468;28;20113;-46
2022/09/18 10:02:18;;;;;;;8.20;1.10;;;;;;;;;;4964008;28;20126;-46
2022/09/18 10:04:52;;;;;;;0.90;0.60;;;;;;;;;;4964273;28;20049;-46
2022/09/18 10:07:24;;;;;;;5.20;1.08;;;;;;;;;;4980367;28;20384;-45
2022/09/18 10:10:02;;;;;;;4.85;0.90;;;;;;;;;;4981375;28;20039;-46
2022/09/18 10:12:51;;;;;;;0.80;0.73;;;;;;;;;;4980922;28;20074;-47
2022/09/18 10:15:38;;;;;;;3.45;1.08;;;;;;;;;;4982645;28;20165;-48
2022/09/18 10:18:12;;;;;;;1.85;0.93;;;;;;;;;;4982126;28;20178;-43
2022/09/18 10:20:39;;;;;;;3.45;1.20;;;;;;;;;;4983900;28;20046;-45
2022/09/18 10:23:14;;;;;;;2.05;0.90;;;;;;;;;;4981113;28;20043;-44
2022/09/18 10:25:48;;;;;;;1.77;1.02;;;;;;;;;;4979001;28;20050;-43
2022/09/18 10:28:14;;;;;;;1.88;0.65;;;;;;;;;;4983340;28;20034;-45
2022/09/18 10:31:04;;;;;;;2.83;0.80;;;;;;;;;;4985157;28;20096;-44
2022/09/18 10:33:39;;;;;;;1.52;0.85;;;;;;;;;;4984577;28;20031;-45
2022/09/18 10:36:31;;;;;;;4.55;1.20;;;;;;;;;;4997938;28;20066;-44
2022/09/18 10:38:58;;;;;;;3.80;0.82;;;;;;;;;;5005341;28;20103;-48
2022/09/18 10:41:43;;;;;;;1.50;0.95;;;;;;;;;;5007558;28;20042;-45
2022/09/18 10:44:21;;;;;;;4.80;1.25;;;;;;;;;;5009501;28;20104;-47
2022/09/18 10:46:53;;;;;;;1.48;0.88;;;;;;;;;;5008302;28;20049;-47
2022/09/18 10:49:23;;;;;;;1.23;0.93;;;;;;;;;;5005186;28;20037;-45
2022/09/18 10:52:14;;;;;;;1.92;0.90;;;;;;;;;;5004622;28;20410;-45
2022/09/18 10:54:39;;;;;;;2.50;1.05;;;;;;;;;;5009954;28;20045;-48
2022/09/18 10:57:29;;;;;;;4.55;1.33;;;;;;;;;;5021532;28;20042;-51
2022/09/18 10:59:54;;;;;;;4.20;0.98;;;;;;;;;;5027611;28;20512;-47
2022/09/18 11:02:23;;;;;;;5.78;1.08;;;;;;;;;;5025632;28;20179;-46
2022/09/18 11:04:49;;;;;;;1.55;1.10;;;;;;;;;;5026636;28;20037;-45
2022/09/18 11:07:16;;;;;;;3.17;1.10;;;;;;;;;;5008581;28;20038;-49
2022/09/18 11:09:42;;;;;;;3.45;0.80;;;;;;;;;;5006860;28;20081;-48
2022/09/18 11:12:26;;;;;;;4.15;1.02;;;;;;;;;;5023860;28;20041;-48
2022/09/18 11:15:05;;;;;;;3.95;1.20;;;;;;;;;;5025735;28;20030;-49
2022/09/18 11:17:34;;;;;;;4.85;1.05;;;;;;;;;;5003426;28;20077;-45
2022/09/18 11:20:02;;;;;;;2.00;1.27;;;;;;;;;;5005517;28;20061;-45
2022/09/18 11:22:41;;;;;;;5.18;1.10;;;;;;;;;;5025325;28;20049;-48
2022/09/18 11:25:13;;;;;;;2.97;0.98;;;;;;;;;;5024859;28;20064;-45
2022/09/18 11:27:58;;;;;;;2.50;0.80;;;;;;;;;;5008130;28;20037;-47
2022/09/18 11:30:26;;;;;;;1.25;0.70;;;;;;;;;;5005316;28;20044;-46
2022/09/18 11:33:01;;;;;;;5.03;3.83;;;;;;;;;;5015330;28;20022;-48
2022/09/18 11:35:28;;;;;;;4.15;3.42;;;;;;;;;;5019467;28;20057;-45
2022/09/18 11:37:58;;;;;;;4.88;3.70;;;;;;;;;;5019427;28;20037;-46
2022/09/18 11:40:31;;;;;;;4.75;1.60;;;;;;;;;;5012087;28;20056;-52
2022/09/18 11:42:58;;;;;;;4.28;1.42;;;;;;;;;;5015844;28;20560;-47
2022/09/18 11:45:36;;;;;;;2.28;1.20;;;;;;;;;;5010058;28;20044;-47
2022/09/18 11:48:24;;;;;;;3.75;1.67;;;;;;;;;;5004767;28;20030;-51
2022/09/18 11:50:56;;;;;;;4.90;1.30;;;;;;;;;;4995762;28;20089;-45
2022/09/18 11:53:26;;;;;;;6.00;1.40;;;;;;;;;;5005007;28;20049;-45
2022/09/18 11:56:11;;;;;;;2.25;1.00;;;;;;;;;;5012429;28;20092;-47
2022/09/18 11:58:48;;;;;;;1.55;1.00;;;;;;;;;;5024297;28;20119;-48
2022/09/18 12:01:16;;;;;;;3.10;1.35;;;;;;;;;;5027035;28;20092;-49
2022/09/18 12:03:51;;;;;;;4.70;1.50;;;;;;;;;;5022731;28;20506;-45
2022/09/18 12:06:41;;;;;;;4.85;2.22;;;;;;;;;;5014462;28;20038;-44
2022/09/18 12:09:15;;;;;;;6.40;1.58;;;;;;;;;;5006640;28;20046;-46
2022/09/18 12:11:45;;;;;;;3.35;1.23;;;;;;;;;;5004262;28;20045;-48
2022/09/18 12:14:17;;;;;;;5.50;1.10;;;;;;;;;;5007122;28;20026;-50
2022/09/18 12:16:57;;;;;;;3.38;1.45;;;;;;;;;;5005555;28;20049;-46
2022/09/18 12:19:36;;;;;;;2.30;1.00;;;;;;;;;;5003841;28;20026;-46
2022/09/18 12:22:22;;;;;;;4.22;1.33;;;;;;;;;;5004463;28;20070;-49
2022/09/18 12:24:49;;;;;;;7.10;1.80;;;;;;;;;;4996045;28;20041;-47
2022/09/18 12:27:43;;;;;;;4.75;1.40;;;;;;;;;;5024309;28;20040;-48
2022/09/18 12:30:11;;;;;;;9.13;1.50;;;;;;;;;;5022811;28;20117;-46
2022/09/18 12:33:13;;;;;;;6.05;2.03;;;;;;;;;;5007382;28;20038;-45
2022/09/18 12:35:55;;;;;;;5.47;1.60;;;;;;;;;;5006027;28;20042;-49
2022/09/18 12:38:39;;;;;;;4.28;1.60;;;;;;;;;;5003506;28;20045;-50
2022/09/18 12:41:24;;;;;;;2.78;1.27;;;;;;;;;;5007874;28;20120;-47
2022/09/18 12:43:58;;;;;;;3.13;1.30;;;;;;;;;;5007625;28;20037;-48
2022/09/18 12:46:32;;;;;;;2.53;1.17;;;;;;;;;;5014681;28;20124;-47
2022/09/18 12:49:12;;;;;;;3.55;1.40;;;;;;;;;;5025706;28;21491;-48
2022/09/18 12:52:20;;;;;;;5.45;1.48;;;;;;;;;;5024168;28;20037;-47
2022/09/18 12:55:04;;;;;;;6.25;1.85;;;;;;;;;;5021917;28;20038;-49
2022/09/18 12:57:59;;;;;;;4.25;1.33;;;;;;;;;;5004895;28;20738;-45
2022/09/18 13:00:27;;;;;;;3.63;1.27;;;;;;;;;;5006354;28;20030;-49
2022/09/18 13:02:59;;;;;;;5.78;1.30;;;;;;;;;;5005983;28;20033;-46
2022/09/18 13:05:28;;;;;;;7.40;1.55;;;;;;;;;;5005408;28;20391;-46
2022/09/18 13:08:00;;;;;;;3.55;1.35;;;;;;;;;;5026870;28;20034;-50
2022/09/18 13:10:25;;;;;;;;;;;;;;;;;;5023079;28;20036;-48
2022/09/18 13:13:09;;;;;;;11.13;1.70;;;;;;;;;;5007140;28;19925;-49
2022/09/18 13:15:35;;;;;;;4.65;1.60;;;;;;;;;;5003168;28;20064;-46
2022/09/18 13:18:19;;;;;;;9.27;1.50;;;;;;;;;;5004231;28;20490;-46
2022/09/18 13:20:45;;;;;;;9.85;1.50;;;;;;;;;;5006362;28;20081;-45
2022/09/18 13:23:21;;;;;;;4.18;1.50;;;;;;;;;;5004289;28;20065;-45
2022/09/18 13:25:50;;;;;;;6.40;1.38;;;;;;;;;;5008257;28;20045;-49
2022/09/18 13:28:18;;;;;;;2.83;1.30;;;;;;;;;;5022757;28;20033;-51
2022/09/18 13:30:45;;;;;;;4.57;1.20;;;;;;;;;;5016492;28;20446;-46
2022/09/18 13:33:25;;;;;;;3.63;1.25;;;;;;;;;;5002442;28;20489;-49
2022/09/18 13:35:56;;;;;;;5.53;1.50;;;;;;;;;;5006173;28;20045;-46
2022/09/18 13:38:25;;;;;;;9.38;1.40;;;;;;;;;;5021944;28;20494;-48
2022/09/18 13:41:07;;;;;;;4.15;1.67;;;;;;;;;;5022987;28;20103;-50
2022/09/18 13:43:38;;;;;;;4.90;1.70;;;;;;;;;;5019192;28;20566;-47
2022/09/18 13:46:04;;;;;;;9.02;1.50;;;;;;;;;;5019268;28;20043;-48
2022/09/18 13:48:44;;;;;;;4.30;1.25;;;;;;;;;;5021773;28;20033;-45
2022/09/18 13:51:22;;;;;;;12.98;1.40;;;;;;;;;;5010836;28;20454;-46
2022/09/18 13:54:10;;;;;;;6.93;1.88;;;;;;;;;;5003319;28;20129;-50
2022/09/18 13:57:09;;;;;;;3.97;1.10;;;;;;;;;;4999656;28;20048;-46
2022/09/18 13:59:47;;;;;;;7.00;1.38;;;;;;;;;;5000817;28;20065;-49
2022/09/18 14:02:24;;;;;;;3.75;1.63;;;;;;;;;;5000920;28;20036;-49
2022/09/18 14:05:00;;;;;;;3.08;1.10;;;;;;;;;;5000441;28;20030;-51
2022/09/18 14:07:25;;;;;;;9.27;1.40;;;;;;;;;;5019844;28;20053;-48
2022/09/18 14:09:59;;;;;;;7.15;1.50;;;;;;;;;;5021747;28;20036;-50
2022/09/18 14:12:27;;;;;;;5.38;1.40;;;;;;;;;;5000771;28;20569;-49
2022/09/18 14:15:08;;;;;;;5.80;1.20;;;;;;;;;;4999720;28;20130;-49
2022/09/18 14:17:35;;;;;;;2.13;1.35;;;;;;;;;;5018029;28;20120;-47
2022/09/18 14:20:16;;;;;;;3.75;1.25;;;;;;;;;;5019473;28;20025;-51
2022/09/18 14:22:42;;;;;;;7.82;1.65;;;;;;;;;;5020353;28;20080;-48
2022/09/18 14:25:13;;;;;;;5.65;1.33;;;;;;;;;;5020264;28;20036;-45
2022/09/18 14:27:47;;;;;;;7.28;1.50;;;;;;;;;;5020339;28;20079;-47
2022/09/18 14:30:19;;;;;;;2.50;1.20;;;;;;;;;;5019686;28;20037;-45
2022/09/18 14:33:24;;;;;;;14.80;1.70;;;;;;;;;;5020039;28;20041;-48
2022/09/18 14:35:50;;;;;;;4.13;1.42;;;;;;;;;;4987361;28;20050;-48
2022/09/18 14:38:24;;;;;;;4.32;1.45;;;;;;;;;;5002420;28;20457;-45
2022/09/18 14:41:17;;;;;;;6.57;1.33;;;;;;;;;;5001635;28;20046;-47
2022/09/18 14:43:59;;;;;;;1.90;1.20;;;;;;;;;;5003426;28;20061;-47
2022/09/18 14:46:26;;;;;;;3.72;1.00;;;;;;;;;;5002385;28;20552;-47
2022/09/18 14:48:53;;;;;;;1.35;1.25;;;;;;;;;;4998315;28;20125;-48
2022/09/18 14:51:27;;;;;;;1.92;1.10;;;;;;;;;;5003288;28;20124;-46
2022/09/18 14:53:56;;;;;;;4.88;2.42;;;;;;;;;;5000917;28;20046;-45
2022/09/18 14:56:31;;;;;;;2.80;1.17;;;;;;;;;;5003874;28;20046;-46
2022/09/18 14:58:59;;;;;;;5.45;1.63;;;;;;;;;;5004284;28;20536;-47
2022/09/18 15:01:30;;;;;;;1.95;1.10;;;;;;;;;;5004874;28;20121;-49
2022/09/18 15:03:58;;;;;;;3.80;1.60;;;;;;;;;;4987826;28;20136;-48
2022/09/18 15:06:37;;;;;;;1.13;1.05;;;;;;;;;;5013166;28;20092;-50
2022/09/18 15:09:04;;;;;;;5.13;1.42;;;;;;;;;;5020872;28;20508;-45
2022/09/18 15:11:30;;;;;;;2.13;1.25;;;;;;;;;;5022734;28;20037;-51